createdAt,value
2018-05-12T00:02:15.720Z,71.10
2018-05-12T00:04:41.929Z,71.10
2018-05-12T00:07:08.827Z,72.20
2018-05-12T00:09:35.081Z,72.20
2018-05-12T00:12:01.570Z,72.40
2018-05-12T00:14:27.786Z,71.70
2018-05-12T00:16:53.951Z,70.70
2018-05-12T00:19:20.167Z,71.00
2018-05-12T00:21:46.373Z,72.70
2018-05-12T00:24:12.540Z,73.00
2018-05-12T00:26:38.871Z,73.60
2018-05-12T00:29:05.096Z,73.50
2018-05-12T00:31:31.328Z,73.90
2018-05-12T00:33:57.548Z,74.10
2018-05-12T00:36:23.809Z,74.50
2018-05-12T00:38:50.046Z,74.90
2018-05-12T00:41:16.976Z,75.60
2018-05-12T00:43:43.220Z,74.80
2018-05-12T00:46:09.420Z,74.80
2018-05-12T00:48:35.652Z,75.10
2018-05-12T00:51:01.863Z,74.70
2018-05-12T00:53:28.114Z,74.70
2018-05-12T00:55:54.331Z,74.70
2018-05-12T00:58:20.515Z,75.40
2018-05-12T01:00:46.707Z,75.80
2018-05-12T01:03:12.914Z,75.90
2018-05-12T01:05:39.062Z,76.00
2018-05-12T01:08:05.276Z,76.40
2018-05-12T01:10:31.484Z,76.50
2018-05-12T01:12:57.836Z,76.90
2018-05-12T01:15:24.041Z,77.10
2018-05-12T01:17:50.227Z,77.70
2018-05-12T01:20:17.215Z,78.80
2018-05-12T01:22:44.179Z,79.20
2018-05-12T01:25:10.430Z,79.20
2018-05-12T01:27:36.677Z,79.70
2018-05-12T01:30:03.665Z,80.40
2018-05-12T01:32:29.920Z,80.40
2018-05-12T01:34:56.083Z,80.90
2018-05-12T01:37:23.071Z,82.30
2018-05-12T01:39:49.244Z,82.20
2018-05-12T01:42:16.151Z,84.40
2018-05-12T01:44:42.326Z,83.60
2018-05-12T01:47:09.305Z,84.60
2018-05-12T01:52:31.532Z,84.70
2018-05-12T01:54:57.732Z,85.10
2018-05-12T01:57:23.915Z,84.70
2018-05-12T01:59:51.102Z,85.00
2018-05-12T02:02:17.325Z,85.10
2018-05-12T02:04:43.685Z,85.30
2018-05-12T02:07:10.105Z,85.90
2018-05-12T02:09:37.086Z,86.50
2018-05-12T02:12:03.412Z,86.40
2018-05-12T02:14:29.763Z,86.10
2018-05-12T02:16:56.019Z,86.50
2018-05-12T02:19:22.238Z,86.50
2018-05-12T02:21:48.451Z,86.90
2018-05-12T02:24:14.658Z,86.70
2018-05-12T02:26:40.887Z,86.60
2018-05-12T02:29:07.118Z,86.50
2018-05-12T02:31:33.463Z,86.80
2018-05-12T02:33:59.674Z,86.70
2018-05-12T02:36:25.897Z,86.60
2018-05-12T02:38:52.133Z,86.50
2018-05-12T02:41:18.345Z,86.60
2018-05-12T02:43:44.584Z,86.60
2018-05-12T02:46:10.849Z,86.60
2018-05-12T02:48:37.050Z,86.30
2018-05-12T02:51:03.356Z,86.60
2018-05-12T02:53:29.584Z,86.00
2018-05-12T02:55:55.826Z,86.00
2018-05-12T02:58:22.036Z,85.90
2018-05-12T03:00:48.393Z,85.70
2018-05-12T03:03:14.688Z,85.80
2018-05-12T03:05:41.012Z,86.20
2018-05-12T03:08:08.009Z,86.60
2018-05-12T03:10:34.323Z,86.50
2018-05-12T03:13:00.532Z,86.30
2018-05-12T03:15:26.765Z,86.30
2018-05-12T03:17:52.970Z,86.60
2018-05-12T03:20:19.928Z,87.00
2018-05-12T03:22:47.665Z,86.60
2018-05-12T03:25:13.938Z,86.60
2018-05-12T03:27:40.347Z,86.70
2018-05-12T03:30:06.615Z,86.70
2018-05-12T03:32:32.880Z,86.70
2018-05-12T03:34:59.125Z,86.80
2018-05-12T03:37:26.084Z,87.40
2018-05-12T03:39:52.433Z,87.30
2018-05-12T03:42:19.275Z,87.40
2018-05-12T03:44:45.488Z,87.30
2018-05-12T03:47:12.437Z,88.00
2018-05-12T03:49:39.393Z,87.70
2018-05-12T03:52:05.621Z,87.70
2018-05-12T03:54:31.832Z,87.90
2018-05-12T03:56:58.802Z,88.60
2018-05-12T03:59:25.013Z,88.60
2018-05-12T04:01:51.317Z,88.70
2018-05-12T04:04:39.234Z,88.90
2018-05-12T04:07:17.467Z,89.00
2018-05-12T04:09:55.904Z,88.50
2018-05-12T04:12:40.907Z,88.30
2018-05-12T04:15:06.991Z,88.30
2018-05-12T04:17:33.873Z,88.60
2018-05-12T04:20:00.039Z,88.50
2018-05-12T04:22:26.174Z,88.60
2018-05-12T04:24:52.297Z,88.70
2018-05-12T04:27:18.424Z,88.60
2018-05-12T04:29:44.551Z,88.50
2018-05-12T04:32:11.119Z,88.20
2018-05-12T04:34:37.211Z,87.90
2018-05-12T04:37:03.329Z,87.60
2018-05-12T04:39:29.445Z,87.20
2018-05-12T04:41:55.535Z,87.40
2018-05-12T04:44:21.638Z,87.30
2018-05-12T04:46:47.760Z,87.30
2018-05-12T04:49:13.870Z,87.10
2018-05-12T04:51:39.969Z,86.10
2018-05-12T04:54:06.145Z,85.50
2018-05-12T04:56:32.214Z,85.10
2018-05-12T04:58:58.336Z,85.10
2018-05-12T05:01:24.453Z,84.90
2018-05-12T05:03:50.570Z,84.70
2018-05-12T05:06:16.705Z,84.70
2018-05-12T05:08:42.804Z,84.70
2018-05-12T05:11:08.917Z,84.60
2018-05-12T05:13:35.001Z,83.80
2018-05-12T05:16:01.418Z,83.70
2018-05-12T05:18:27.507Z,83.60
2018-05-12T05:20:54.366Z,83.10
2018-05-12T05:23:20.465Z,83.10
2018-05-12T05:25:46.574Z,82.60
2018-05-12T05:28:12.682Z,82.70
2018-05-12T05:30:38.788Z,82.90
2018-05-12T05:33:04.967Z,82.20
2018-05-12T05:35:31.121Z,82.40
2018-05-12T05:37:57.983Z,82.20
2018-05-12T05:40:24.102Z,82.20
2018-05-12T05:42:50.202Z,82.10
2018-05-12T05:45:17.045Z,83.20
2018-05-12T05:47:43.536Z,82.20
2018-05-12T05:50:10.458Z,81.60
2018-05-12T05:52:36.649Z,81.50
2018-05-12T05:55:03.565Z,81.40
2018-05-12T05:57:30.468Z,81.00
2018-05-12T05:59:56.603Z,81.00
2018-05-12T06:02:22.755Z,80.70
2018-05-12T06:04:48.920Z,80.30
2018-05-12T06:07:15.197Z,80.40
2018-05-12T06:09:41.277Z,79.80
2018-05-12T06:12:07.605Z,79.20
2018-05-12T06:14:34.034Z,79.00
2018-05-12T06:17:01.872Z,78.70
2018-05-12T06:19:33.077Z,78.90
2018-05-12T06:22:08.912Z,77.60
2018-05-12T06:24:36.219Z,77.30
2018-05-12T06:27:03.023Z,76.50
2018-05-12T06:29:29.750Z,76.40
2018-05-12T06:32:01.041Z,76.40
2018-05-12T06:34:27.621Z,76.20
2018-05-12T06:36:54.145Z,75.10
2018-05-12T06:39:30.329Z,74.60
2018-05-12T06:41:57.653Z,74.40
2018-05-12T06:44:25.895Z,74.40
2018-05-12T06:47:02.422Z,74.60
2018-05-12T06:51:04.844Z,74.00
2018-05-12T06:53:34.816Z,73.40
2018-05-12T06:56:01.142Z,73.80
2018-05-12T06:58:27.268Z,73.00
2018-05-12T07:00:53.452Z,72.50
2018-05-12T07:03:19.573Z,72.00
2018-05-12T07:05:46.010Z,71.70
2018-05-12T07:08:12.157Z,71.30
2018-05-12T07:10:38.282Z,70.90
2018-05-12T07:13:04.429Z,71.40
2018-05-12T07:15:30.600Z,71.10
2018-05-12T07:17:56.753Z,70.70
2018-05-12T07:20:24.283Z,68.10
2018-05-12T07:22:50.482Z,68.10
2018-05-12T07:25:16.610Z,68.00
2018-05-12T07:27:42.737Z,67.70
2018-05-12T07:30:08.837Z,67.50
2018-05-12T07:32:34.960Z,67.40
2018-05-12T07:35:01.131Z,66.40
2018-05-12T07:37:27.321Z,65.50
2018-05-12T07:39:53.463Z,65.60
2018-05-12T07:42:19.613Z,65.00
2018-05-12T07:44:46.509Z,64.40
2018-05-12T07:47:12.678Z,64.20
2018-05-12T07:49:38.927Z,65.30
2018-05-12T07:52:05.427Z,65.10
2018-05-12T07:54:31.693Z,64.70
2018-05-12T07:57:05.246Z,64.20
2018-05-12T07:59:31.393Z,64.20
2018-05-12T08:01:57.571Z,63.30
2018-05-12T08:04:23.810Z,63.10
2018-05-12T08:06:50.896Z,63.10
2018-05-12T08:12:22.537Z,62.40
2018-05-12T08:14:52.646Z,62.40
2018-05-12T08:17:19.015Z,61.50
2018-05-12T08:19:45.991Z,60.20
2018-05-12T08:22:12.823Z,60.10
2018-05-12T08:24:39.273Z,58.60
2018-05-12T08:27:05.481Z,57.70
2018-05-12T08:29:31.661Z,57.60
2018-05-12T08:32:03.776Z,57.80
2018-05-12T08:34:30.024Z,58.40
2018-05-12T08:36:56.231Z,57.70
2018-05-12T08:39:22.811Z,57.10
2018-05-12T08:41:49.008Z,57.10
2018-05-12T08:44:15.187Z,56.10
2018-05-12T08:46:41.469Z,55.60
2018-05-12T08:49:07.743Z,54.90
2018-05-12T08:51:33.959Z,53.10
2018-05-12T08:54:00.130Z,50.50
2018-05-12T08:56:27.300Z,49.60
2018-05-12T08:58:53.626Z,49.50
2018-05-12T09:01:20.207Z,49.50
2018-05-12T09:03:49.459Z,49.70
2018-05-12T09:06:15.563Z,49.90
2018-05-12T09:08:42.197Z,47.60
2018-05-12T09:11:08.758Z,47.00
2018-05-12T09:13:42.609Z,46.90
2018-05-12T09:16:13.489Z,46.70
2018-05-12T09:21:24.095Z,43.90
2018-05-12T09:36:02.582Z,38.50
2018-05-12T09:38:29.479Z,38.60
2018-05-12T09:40:55.602Z,38.60
2018-05-12T09:43:21.730Z,39.90
2018-05-12T09:45:47.884Z,40.40
2018-05-12T09:48:14.547Z,39.50
2018-05-12T09:50:40.749Z,37.80
2018-05-12T09:53:07.802Z,38.30
2018-05-12T09:55:33.976Z,39.40
2018-05-12T09:58:00.135Z,38.80
2018-05-12T10:00:26.262Z,39.10
2018-05-12T10:02:52.399Z,36.40
2018-05-12T10:05:18.535Z,36.50
2018-05-12T10:07:44.652Z,36.90
2018-05-12T10:10:10.777Z,37.90
2018-05-12T10:12:36.927Z,37.00
2018-05-12T10:15:03.042Z,37.10
2018-05-12T10:17:29.192Z,37.50
2018-05-12T10:19:56.038Z,37.70
2018-05-12T10:22:22.167Z,37.70
2018-05-12T10:24:49.422Z,36.80
2018-05-12T10:27:15.596Z,36.40
2018-05-12T10:29:43.886Z,35.90
2018-05-12T10:32:10.106Z,35.20
2018-05-12T10:34:37.024Z,33.90
2018-05-12T10:37:03.389Z,35.30
2018-05-12T10:39:29.546Z,36.00
2018-05-12T10:41:57.401Z,36.40
2018-05-12T10:44:23.554Z,36.40
2018-05-12T10:46:50.461Z,35.90
2018-05-12T10:49:18.786Z,35.90
2018-05-12T10:51:45.837Z,34.90
2018-05-12T10:54:13.986Z,34.80
2018-05-12T10:56:40.186Z,33.60
2018-05-12T10:59:06.442Z,33.90
2018-05-12T11:01:34.245Z,33.60
2018-05-12T11:04:00.374Z,33.50
2018-05-12T11:06:26.657Z,34.00
2018-05-12T11:08:53.375Z,32.90
2018-05-12T11:11:20.213Z,32.40
2018-05-12T11:13:56.161Z,33.70
2018-05-12T11:21:55.302Z,33.30
2018-05-12T11:24:21.657Z,33.20
2018-05-12T11:26:47.885Z,33.50
2018-05-12T11:29:15.874Z,33.20
2018-05-12T11:31:43.908Z,33.30
2018-05-12T11:34:10.201Z,33.40
2018-05-12T11:36:37.777Z,33.30
2018-05-12T11:39:04.208Z,33.30
2018-05-12T11:41:30.435Z,34.10
2018-05-12T11:43:58.580Z,33.80
2018-05-12T11:46:24.841Z,32.30
2018-05-12T11:51:46.700Z,31.60
2018-05-12T11:54:12.940Z,32.00
2018-05-12T11:57:12.733Z,31.00
2018-05-12T12:02:14.766Z,32.20
2018-05-12T12:04:40.977Z,32.10
2018-05-12T12:07:07.166Z,31.70
2018-05-12T12:09:33.611Z,29.70
2018-05-12T12:12:00.161Z,31.70
2018-05-12T12:14:26.916Z,30.90
2018-05-12T12:16:53.176Z,32.00
2018-05-12T12:19:19.376Z,32.30
2018-05-12T12:21:45.594Z,31.90
2018-05-12T12:24:12.029Z,31.60
2018-05-12T12:26:38.572Z,30.60
2018-05-12T12:29:05.102Z,30.40
2018-05-12T12:31:33.083Z,31.30
2018-05-12T12:33:59.503Z,30.20
2018-05-12T12:36:25.640Z,31.00
2018-05-12T12:38:51.930Z,31.60
2018-05-12T12:41:18.114Z,31.50
2018-05-12T12:43:44.941Z,30.90
2018-05-12T12:46:12.162Z,30.60
2018-05-12T12:48:44.590Z,31.20
2018-05-12T12:51:21.261Z,30.40
2018-05-12T12:59:31.317Z,31.00
2018-05-12T13:01:57.469Z,30.50
2018-05-12T13:04:24.059Z,30.40
2018-05-12T13:07:06.503Z,30.90
2018-05-12T13:09:32.834Z,31.00
2018-05-12T13:11:59.331Z,31.50
2018-05-12T13:14:25.674Z,30.80
2018-05-12T13:16:51.830Z,30.00
2018-05-12T13:19:18.457Z,29.20
2018-05-12T13:21:48.155Z,29.70
2018-05-12T13:27:28.144Z,28.50
2018-05-12T13:29:54.632Z,28.50
2018-05-12T13:32:21.267Z,28.70
2018-05-12T13:34:47.294Z,29.40
2018-05-12T13:37:14.162Z,29.40
2018-05-12T13:39:40.284Z,29.40
2018-05-12T13:42:06.444Z,28.90
2018-05-12T13:44:32.932Z,28.40
2018-05-12T13:46:59.251Z,28.40
2018-05-12T13:49:26.143Z,28.80
2018-05-12T13:51:52.425Z,28.30
2018-05-12T13:54:19.962Z,29.00
2018-05-12T13:56:46.256Z,29.40
2018-05-12T13:59:13.203Z,29.80
2018-05-12T14:01:39.673Z,29.80
2018-05-12T14:04:05.971Z,29.30
2018-05-12T14:06:32.477Z,29.60
2018-05-12T14:08:58.686Z,29.10
2018-05-12T14:11:25.592Z,28.90
2018-05-12T14:13:51.742Z,28.90
2018-05-12T14:16:17.938Z,28.80
2018-05-12T14:18:44.188Z,28.60
2018-05-12T14:21:10.434Z,28.40
2018-05-12T14:23:37.975Z,27.40
2018-05-12T14:26:05.122Z,28.60
2018-05-12T14:28:31.266Z,28.60
2018-05-12T14:30:57.418Z,27.50
2018-05-12T14:33:25.552Z,27.00
2018-05-12T14:35:51.746Z,26.50
2018-05-12T14:38:17.981Z,27.10
2018-05-12T14:40:44.160Z,26.20
2018-05-12T14:43:11.167Z,26.70
2018-05-12T14:45:37.367Z,26.70
2018-05-12T14:48:03.528Z,27.00
2018-05-12T14:50:29.662Z,28.10
2018-05-12T14:52:55.797Z,27.80
2018-05-12T14:55:22.207Z,27.80
2018-05-12T14:57:48.780Z,27.90
2018-05-12T15:00:14.906Z,27.50
2018-05-12T15:02:41.050Z,27.90
2018-05-12T15:05:07.223Z,26.50
2018-05-12T15:07:33.358Z,26.20
2018-05-12T15:09:59.498Z,26.60
2018-05-12T15:12:25.658Z,26.10
2018-05-12T15:14:51.949Z,26.50
2018-05-12T15:17:31.878Z,26.70
2018-05-12T15:19:58.020Z,27.70
2018-05-12T15:22:24.219Z,28.10
2018-05-12T15:24:50.335Z,27.60
2018-05-12T15:27:16.489Z,28.00
2018-05-12T15:29:42.614Z,27.40
2018-05-12T15:32:08.747Z,27.30
2018-05-12T15:34:34.847Z,27.20
2018-05-12T15:37:00.974Z,27.10
2018-05-12T15:39:27.092Z,26.40
2018-05-12T15:41:53.190Z,25.90
2018-05-12T15:44:19.359Z,25.90
2018-05-12T15:46:45.486Z,26.40
2018-05-12T15:49:11.611Z,26.40
2018-05-12T15:51:37.718Z,26.50
2018-05-12T15:54:04.659Z,27.90
2018-05-12T15:56:31.513Z,27.70
2018-05-12T15:58:57.678Z,27.60
2018-05-12T16:01:23.767Z,27.10
2018-05-12T16:03:49.885Z,27.20
2018-05-12T16:06:16.335Z,27.40
2018-05-12T16:08:42.438Z,27.00
2018-05-12T16:11:09.330Z,27.30
2018-05-12T16:13:35.455Z,27.30
2018-05-12T16:16:01.683Z,28.00
2018-05-12T16:18:27.788Z,28.10
2018-05-12T16:20:56.090Z,28.00
2018-05-12T16:23:22.282Z,27.80
2018-05-12T16:25:48.485Z,29.00
2018-05-12T16:28:14.616Z,29.20
2018-05-12T16:30:41.469Z,29.00
2018-05-12T16:33:08.486Z,29.30
2018-05-12T16:35:35.122Z,29.20
2018-05-12T16:38:02.011Z,29.40
2018-05-12T16:40:34.492Z,30.70
2018-05-12T16:43:01.792Z,31.00
2018-05-12T16:45:29.407Z,30.90
2018-05-12T16:47:56.594Z,30.40
2018-05-12T16:50:25.510Z,29.90
2018-05-12T16:52:53.872Z,28.70
2018-05-12T16:55:20.189Z,28.70
2018-05-12T16:57:47.453Z,28.60
2018-05-12T17:00:19.649Z,29.70
2018-05-12T17:02:46.071Z,30.20
2018-05-12T17:05:14.119Z,30.80
2018-05-12T17:07:47.557Z,31.60
2018-05-12T17:10:16.355Z,32.50
2018-05-12T17:17:24.709Z,33.60
2018-05-12T17:19:55.993Z,33.80
2018-05-12T17:22:23.417Z,34.40
2018-05-12T17:27:28.134Z,35.00
2018-05-12T17:29:55.578Z,35.70
2018-05-12T17:32:21.656Z,35.70
2018-05-12T17:34:47.824Z,36.50
2018-05-12T17:37:13.952Z,36.50
2018-05-12T17:39:40.661Z,36.80
2018-05-12T17:42:07.110Z,37.20
2018-05-12T17:44:33.355Z,37.70
2018-05-12T17:46:59.649Z,37.70
2018-05-12T17:49:25.803Z,37.80
2018-05-12T17:51:52.490Z,37.70
2018-05-12T17:54:20.249Z,38.00
2018-05-12T17:56:47.100Z,38.80
2018-05-12T17:59:14.050Z,38.80
2018-05-12T18:01:40.897Z,39.10
2018-05-12T18:04:07.750Z,39.20
2018-05-12T18:06:33.924Z,39.20
2018-05-12T18:09:00.137Z,39.60
2018-05-12T18:11:26.377Z,39.70
2018-05-12T18:13:52.463Z,39.70
2018-05-12T18:16:18.828Z,40.20
2018-05-12T18:18:45.770Z,40.50
2018-05-12T18:21:14.421Z,40.90
2018-05-12T18:23:40.597Z,41.20
2018-05-12T18:26:06.730Z,41.50
2018-05-12T18:28:32.906Z,41.90
2018-05-12T18:30:59.213Z,42.20
2018-05-12T18:33:25.500Z,42.50
2018-05-12T18:35:51.697Z,42.90
2018-05-12T18:38:19.904Z,44.90
2018-05-12T18:40:46.430Z,45.10
2018-05-12T18:43:13.595Z,47.00
2018-05-12T18:45:41.479Z,47.30
2018-05-12T18:50:49.426Z,50.60
2018-05-12T18:53:28.233Z,50.60
2018-05-12T18:55:55.714Z,51.10
2018-05-12T18:58:22.123Z,51.90
2018-05-12T19:00:49.234Z,54.10
2018-05-12T19:03:15.650Z,54.10
2018-05-12T19:05:41.997Z,54.00
2018-05-12T19:08:08.331Z,54.90
2018-05-12T19:10:36.858Z,55.10
2018-05-12T19:13:04.896Z,55.60
2018-05-12T19:15:38.045Z,56.10
2018-05-12T19:18:05.865Z,56.30
2018-05-12T19:20:35.874Z,56.30
2018-05-12T19:23:03.845Z,56.60
2018-05-12T19:25:33.254Z,57.20
2018-05-12T19:28:07.764Z,57.70
2018-05-12T19:30:45.888Z,57.50
2018-05-12T19:33:27.291Z,58.50
2018-05-12T19:36:01.288Z,58.70
2018-05-12T19:38:40.753Z,59.40
2018-05-12T19:41:16.558Z,59.60
2018-05-12T19:43:45.415Z,59.40
2018-05-12T19:46:18.152Z,59.40
2018-05-12T19:48:48.190Z,59.80
2018-05-12T19:51:14.972Z,59.70
2018-05-12T19:53:41.319Z,60.00
2018-05-12T19:56:07.615Z,60.40
2018-05-12T19:58:33.922Z,61.20
2018-05-12T20:01:00.959Z,61.70
2018-05-12T20:03:27.181Z,61.40
2018-05-12T20:05:53.447Z,61.40
2018-05-12T20:08:19.783Z,61.10
2018-05-12T20:10:46.123Z,61.40
2018-05-12T20:13:13.303Z,61.60
2018-05-12T20:15:39.531Z,61.60
2018-05-12T20:18:05.897Z,61.60
2018-05-12T20:20:32.268Z,62.40
2018-05-12T20:22:58.622Z,62.40
2018-05-12T20:25:24.998Z,62.10
2018-05-12T20:27:52.069Z,61.20
2018-05-12T20:30:18.348Z,61.20
2018-05-12T20:32:44.827Z,62.00
2018-05-12T20:35:11.172Z,62.20
2018-05-12T20:37:37.693Z,62.60
2018-05-12T20:40:03.939Z,63.00
2018-05-12T20:42:30.216Z,61.80
2018-05-12T20:44:56.535Z,61.60
2018-05-12T20:47:22.893Z,62.00
2018-05-12T20:52:25.039Z,62.10
2018-05-12T20:54:51.401Z,60.90
2018-05-12T20:57:17.842Z,61.70
2018-05-12T20:59:45.120Z,61.70
2018-05-12T21:02:14.617Z,61.50
2018-05-12T21:04:42.663Z,61.50
2018-05-12T21:07:09.733Z,61.30
2018-05-12T21:12:49.408Z,61.30
2018-05-12T21:15:24.298Z,61.70
2018-05-12T21:17:51.076Z,61.50
2018-05-12T21:20:18.454Z,61.70
2018-05-12T21:22:47.711Z,61.60
2018-05-12T21:36:17.151Z,63.60
2018-05-12T21:38:50.613Z,63.60
2018-05-12T21:41:20.067Z,63.60
2018-05-12T21:43:47.267Z,63.40
2018-05-12T21:59:32.276Z,62.70
2018-05-12T22:01:58.422Z,63.10
2018-05-12T22:04:25.718Z,61.50
2018-05-12T22:06:52.853Z,62.70
2018-05-12T22:09:21.027Z,62.40
2018-05-12T22:11:48.630Z,62.00
2018-05-12T22:14:16.118Z,62.10
2018-05-12T22:19:48.951Z,61.30
2018-05-12T22:44:05.883Z,63.00
2018-05-12T22:46:55.103Z,63.80
2018-05-12T23:18:22.010Z,68.10
2018-05-12T23:29:47.091Z,69.30
2018-05-12T23:32:13.462Z,69.80
2018-05-12T23:34:45.474Z,69.60
2018-05-12T23:37:46.467Z,70.30
2018-05-12T23:50:19.621Z,69.90
2018-05-12T23:52:47.045Z,70.10
2018-05-12T23:55:13.601Z,70.90
2018-05-12T23:57:40.992Z,71.20
